Time;durP1;ratioP1;P1;durP2;ratioP2;P2;SDS_P1;SDS_P2;PMS_P1;PMS_P2;Temp;Humidity;BMP_temperature;BMP_pressure;BME280_temperature;BME280_humidity;BME280_pressure;Samples;Min_cycle;Max_cycle;Signal;HPM_P1;HPM_P2
2022/08/25 00:01:56;;;;;;;6.60;3.70;;;19.90;99.90;;;-144.05;53.75;125687.94;5019264;28;20096;-87
2022/08/25 00:04:23;;;;;;;7.43;3.35;;;19.90;99.90;;;-144.05;54.16;125687.94;5027145;28;20026;-89
2022/08/25 00:06:51;;;;;;;5.95;3.92;;;19.80;99.90;;;-144.05;54.99;125687.94;5026879;28;20056;-90
2022/08/25 00:09:23;;;;;;;4.20;3.42;;;19.70;99.90;;;-144.05;55.40;125687.94;5027232;28;20049;-85
2022/08/25 00:11:50;;;;;;;5.57;3.97;;;19.60;99.90;;;-144.05;55.79;125687.94;5016508;28;20034;-88
2022/08/25 00:14:27;;;;;;;7.93;4.00;;;19.50;99.90;;;-144.05;56.55;125687.94;5010546;28;20033;-85
2022/08/25 00:16:54;;;;;;;6.22;4.03;;;19.50;99.90;;;-144.05;57.23;125687.94;4995862;28;20515;-87
2022/08/25 00:19:30;;;;;;;5.90;3.58;;;19.40;99.90;;;-144.05;57.24;125687.94;5010490;28;20038;-89
2022/08/25 00:21:58;;;;;;;8.68;4.25;;;19.30;99.90;;;-144.05;57.36;125687.94;4995407;28;20520;-89
2022/08/25 00:24:24;;;;;;;8.07;3.97;;;19.20;99.90;;;-144.05;57.42;125687.94;5010753;28;20153;-90
2022/08/25 00:26:55;;;;;;;8.27;4.13;;;19.20;99.90;;;-144.05;57.40;125687.94;4995066;28;20030;-90
2022/08/25 00:29:25;;;;;;;8.93;4.10;;;19.20;99.90;;;-144.05;57.05;125687.94;4995217;28;20026;-87
2022/08/25 00:31:52;;;;;;;6.72;3.97;;;19.20;99.90;;;-144.05;56.47;125687.94;4995670;28;20031;-86
2022/08/25 00:34:34;;;;;;;11.43;3.85;;;19.20;99.90;;;-144.05;56.61;125687.94;4995561;28;20023;-88
2022/08/25 00:37:06;;;;;;;4.80;3.17;;;19.20;99.90;;;-144.05;57.29;125687.94;5010932;28;20040;-88
2022/08/25 00:39:32;;;;;;;7.38;3.60;;;19.10;99.90;;;-144.05;57.60;125687.94;4994412;28;20035;-89
2022/08/25 00:41:58;;;;;;;4.53;3.38;;;19.00;99.90;;;-144.05;57.99;125687.94;4977913;28;20113;-89
2022/08/25 00:44:29;;;;;;;5.65;3.63;;;19.00;99.90;;;-144.05;57.97;125687.94;5011176;28;20100;-89
2022/08/25 00:47:02;;;;;;;4.80;3.38;;;19.00;99.90;;;-144.05;58.19;125687.94;4979886;28;20026;-84
2022/08/25 00:49:53;;;;;;;4.32;3.85;;;18.90;99.90;;;-144.05;59.02;125687.94;5000880;28;20042;-89
2022/08/25 00:52:48;;;;;;;6.72;3.60;;;18.80;99.90;;;-144.05;59.38;125687.94;5015951;28;20037;-85
2022/08/25 00:55:28;;;;;;;8.20;4.20;;;18.70;99.90;;;-144.05;59.58;125687.94;5010654;28;20026;-86
2022/08/25 00:58:01;;;;;;;5.28;3.50;;;18.70;99.90;;;-144.05;59.71;125687.94;5008315;28;20060;-87
2022/08/25 01:00:48;;;;;;;7.15;4.07;;;18.70;99.90;;;-144.05;60.23;125687.94;4999280;28;20069;-89
2022/08/25 01:03:18;;;;;;;7.90;4.32;;;18.70;99.90;;;-144.05;60.69;125687.94;4984429;28;20117;-88
2022/08/25 01:05:46;;;;;;;4.25;3.60;;;18.60;99.90;;;-144.05;61.09;125687.94;4981594;28;20092;-89
2022/08/25 01:08:14;;;;;;;4.15;3.67;;;18.50;99.90;;;-144.05;61.45;125687.94;5014124;28;20195;-88
2022/08/25 01:10:45;;;;;;;7.28;4.13;;;18.40;99.90;;;-144.05;61.57;125687.94;5014015;28;20523;-88
2022/08/25 01:13:39;;;;;;;5.10;3.83;;;18.30;99.90;;;-144.05;62.34;125687.94;4985008;28;20121;-90
2022/08/25 01:16:06;;;;;;;8.77;4.13;;;18.20;99.90;;;-144.05;62.16;125687.94;5007759;28;20045;-87
2022/08/25 01:19:07;;;;;;;6.20;4.03;;;18.20;99.90;;;-144.05;61.38;125687.94;5000854;28;20038;-84
2022/08/25 01:21:46;;;;;;;5.90;3.92;;;18.30;99.90;;;-144.05;60.79;125687.94;4986221;28;20038;-90
2022/08/25 01:24:54;;;;;;;6.80;3.85;;;18.40;99.90;;;-144.05;60.35;125687.94;5017070;28;20498;-87
2022/08/25 01:27:19;;;;;;;6.60;3.88;;;18.40;99.90;;;-144.05;61.37;125687.94;5005022;28;20061;-89
2022/08/25 01:29:46;;;;;;;8.40;3.90;;;18.30;99.90;;;-144.05;61.80;125687.94;5000367;28;20497;-89
2022/08/25 01:32:14;;;;;;;7.03;3.90;;;18.20;99.90;;;-144.05;61.27;125687.94;5018120;28;20034;-90
2022/08/25 01:34:45;;;;;;;6.43;3.85;;;18.20;99.90;;;-144.05;61.84;125687.94;5016746;28;20486;-88
2022/08/25 01:37:15;;;;;;;6.55;4.28;;;18.20;99.90;;;-144.05;62.17;125687.94;5000530;28;20445;-86
2022/08/25 01:39:43;;;;;;;8.25;3.88;;;18.10;99.90;;;-144.05;62.17;125687.94;5000312;28;20030;-86
2022/08/25 01:42:40;;;;;;;7.00;4.35;;;18.00;99.90;;;-144.05;61.90;125687.94;5000058;28;20030;-87
2022/08/25 01:45:09;;;;;;;7.90;4.65;;;18.10;99.90;;;-144.05;61.89;125687.94;5000301;28;20026;-87
2022/08/25 01:47:37;;;;;;;6.53;4.05;;;18.10;99.90;;;-144.05;62.20;125687.94;5016711;28;20022;-87
2022/08/25 01:50:06;;;;;;;6.40;4.57;;;18.10;99.90;;;-144.05;62.91;125687.94;5000237;28;20510;-86
2022/08/25 01:52:54;;;;;;;5.35;4.22;;;18.00;99.90;;;-144.05;62.39;125687.94;4999703;28;20037;-87
2022/08/25 01:55:21;;;;;;;5.53;3.60;;;17.90;99.90;;;-144.05;61.62;125687.94;5017513;28;20509;-89
2022/08/25 01:57:47;;;;;;;5.88;3.97;;;18.00;99.90;;;-144.05;60.29;125687.94;5015887;28;20088;-85
2022/08/25 02:00:17;;;;;;;6.57;4.13;;;18.20;99.90;;;-144.05;60.40;125687.94;4999102;28;20191;-85
2022/08/25 02:02:43;;;;;;;8.00;3.90;;;18.10;99.90;;;-144.05;60.73;125687.94;5017080;28;20029;-87
2022/08/25 02:05:14;;;;;;;5.32;3.40;;;18.10;99.90;;;-144.05;60.50;125687.94;5002917;28;20076;-86
2022/08/25 02:07:41;;;;;;;8.90;3.20;;;18.10;99.90;;;-144.05;58.04;125687.94;5019769;28;20030;-85
2022/08/25 02:10:11;;;;;;;4.47;3.10;;;18.30;99.90;;;-144.05;58.64;125687.94;5003077;28;20485;-88
2022/08/25 02:12:38;;;;;;;5.68;4.03;;;18.30;99.90;;;-144.05;59.94;125687.94;5019708;28;20036;-86
2022/08/25 02:15:08;;;;;;;7.25;3.17;;;18.20;99.90;;;-144.05;59.09;125687.94;5015304;28;20046;-86
2022/08/25 02:17:36;;;;;;;6.82;3.97;;;18.20;99.90;;;-144.05;59.21;125687.94;4982187;28;20493;-85
2022/08/25 02:20:08;;;;;;;7.20;3.90;;;18.30;99.90;;;-144.05;59.73;125687.94;5003023;28;20033;-91
2022/08/25 02:22:34;;;;;;;8.77;3.33;;;18.20;99.90;;;-144.05;58.90;125687.94;4986316;28;20038;-85
2022/08/25 02:25:00;;;;;;;5.50;3.38;;;18.30;99.90;;;-144.05;59.18;125687.94;4999114;28;20030;-86
2022/08/25 02:27:26;;;;;;;6.18;3.75;;;18.30;99.90;;;-144.05;58.22;125687.94;4998317;28;20232;-87
2022/08/25 02:29:51;;;;;;;7.88;3.20;;;18.30;99.90;;;-144.05;58.68;125687.94;4981506;28;20037;-89
2022/08/25 02:32:17;;;;;;;5.80;3.47;;;18.40;99.90;;;-144.05;59.08;125687.94;4981975;28;20035;-87
2022/08/25 02:34:43;;;;;;;5.55;4.10;;;18.30;99.90;;;-144.05;60.29;125687.94;4982450;28;20469;-85
2022/08/25 02:37:09;;;;;;;4.45;3.30;;;18.20;99.90;;;-144.05;60.79;125687.94;4980845;28;20394;-85
2022/08/25 02:39:35;;;;;;;8.50;3.83;;;18.00;99.90;;;-144.05;60.46;125687.94;4980781;28;20086;-85
2022/08/25 02:42:02;;;;;;;7.90;4.03;;;18.00;99.90;;;-144.05;61.26;125687.94;5004897;28;20027;-83
2022/08/25 02:44:28;;;;;;;5.85;3.90;;;17.90;99.90;;;-144.05;61.21;125687.94;4990880;28;20050;-87
2022/08/25 02:46:54;;;;;;;7.05;3.97;;;17.80;99.90;;;-144.05;61.85;125687.94;5013140;28;20030;-85
2022/08/25 02:49:19;;;;;;;6.15;3.67;;;17.70;99.90;;;-144.05;62.32;125687.94;5012126;28;20029;-88
2022/08/25 02:51:45;;;;;;;5.43;3.97;;;17.70;99.90;;;-144.05;62.65;125687.94;4996830;28;20030;-88
2022/08/25 02:54:11;;;;;;;5.45;3.58;;;17.60;99.90;;;-144.05;62.94;125687.94;4997150;28;20026;-87
2022/08/25 02:56:38;;;;;;;6.00;4.18;;;17.50;99.90;;;-144.05;62.58;125687.94;4996627;28;20109;-85
2022/08/25 02:59:04;;;;;;;9.30;4.53;;;17.50;99.90;;;-144.05;62.80;125687.94;4996442;28;20034;-86
2022/08/25 03:01:31;;;;;;;7.90;3.65;;;17.50;99.90;;;-144.05;63.09;125687.94;4979086;28;20037;-85
2022/08/25 03:03:58;;;;;;;4.40;3.33;;;17.40;99.90;;;-144.05;63.13;125687.94;4996148;28;20027;-84
2022/08/25 03:06:26;;;;;;;5.78;3.88;;;17.40;99.90;;;-144.05;63.17;125687.94;4996298;28;20022;-84
2022/08/25 03:08:53;;;;;;;4.05;3.65;;;17.30;99.90;;;-144.05;63.67;125687.94;4979530;28;20031;-86
2022/08/25 03:11:20;;;;;;;5.72;4.10;;;17.30;99.90;;;-144.05;64.21;125687.94;5011512;28;20069;-87
2022/08/25 03:13:49;;;;;;;4.50;3.83;;;17.20;99.90;;;-144.05;64.11;125687.94;5006490;28;20547;-87
2022/08/25 03:16:16;;;;;;;6.97;3.70;;;17.20;99.90;;;-144.05;63.06;125687.94;5016928;28;20034;-84
2022/08/25 03:18:42;;;;;;;9.13;4.40;;;17.30;99.90;;;-144.05;61.77;125687.94;5015757;28;20030;-87
2022/08/25 03:21:10;;;;;;;9.88;4.13;;;17.50;99.90;;;-144.05;60.89;125687.94;5015949;28;20022;-88
2022/08/25 03:23:38;;;;;;;5.80;4.07;;;17.80;99.90;;;-144.05;60.94;125687.94;4999457;28;20113;-87
2022/08/25 03:28:50;;;;;;;7.28;4.03;;;17.90;99.90;;;-144.05;61.60;125687.94;5017464;28;20052;-87
2022/08/25 03:31:16;;;;;;;9.18;4.20;;;17.80;99.90;;;-144.05;61.73;125687.94;4999745;28;20034;-86
2022/08/25 03:33:42;;;;;;;7.28;4.00;;;17.80;99.90;;;-144.05;62.03;125687.94;5000215;28;20076;-87
2022/08/25 03:36:11;;;;;;;6.68;3.95;;;17.80;99.90;;;-144.05;62.35;125687.94;4999429;28;20053;-85
2022/08/25 03:38:38;;;;;;;6.57;4.00;;;17.70;99.90;;;-144.05;62.28;125687.94;5017579;28;20438;-84
2022/08/25 03:41:29;;;;;;;6.05;4.15;;;17.70;99.90;;;-144.05;62.00;125687.94;5000131;28;20026;-86
2022/08/25 03:43:56;;;;;;;7.32;3.90;;;17.60;99.90;;;-144.05;61.31;125687.94;5000113;28;20030;-86
2022/08/25 03:46:29;;;;;;;9.30;3.90;;;17.70;99.90;;;-144.05;60.67;125687.94;5000455;28;20036;-88
2022/08/25 03:49:00;;;;;;;8.57;3.53;;;17.70;99.90;;;-144.05;59.74;125687.94;5001070;28;20057;-87
2022/08/25 03:51:35;;;;;;;7.40;3.80;;;17.80;99.90;;;-144.05;58.11;125687.94;5000651;28;20038;-87
2022/08/25 03:54:04;;;;;;;5.00;3.08;;;18.00;99.90;;;-144.05;57.51;125687.94;5020555;28;20030;-90
2022/08/25 03:56:31;;;;;;;7.47;3.53;;;18.10;99.90;;;-144.05;56.93;125687.94;5032813;28;20045;-83
2022/08/25 03:58:57;;;;;;;9.00;3.50;;;18.30;99.90;;;-144.05;56.32;125687.94;5032828;28;20109;-86
2022/08/25 04:01:23;;;;;;;5.53;3.47;;;18.40;99.90;;;-144.05;56.20;125687.94;5015712;28;20592;-87
2022/08/25 04:03:49;;;;;;;7.95;3.70;;;18.40;99.90;;;-144.05;56.30;125687.94;4998845;28;20053;-87
2022/08/25 04:06:18;;;;;;;7.15;3.60;;;18.40;99.90;;;-144.05;56.42;125687.94;5016264;28;20507;-87
2022/08/25 04:08:44;;;;;;;7.75;3.80;;;18.40;99.90;;;-144.05;56.95;125687.94;5014982;28;20065;-86
2022/08/25 04:11:20;;;;;;;8.25;4.40;;;18.30;99.90;;;-144.05;58.41;125687.94;5014168;28;20476;-88
2022/08/25 04:13:48;;;;;;;8.80;4.00;;;18.10;99.90;;;-144.05;59.31;125687.94;5011537;28;20049;-87
2022/08/25 04:16:30;;;;;;;6.50;3.55;;;17.90;99.90;;;-144.05;59.36;125687.94;4979282;28;20026;-86
2022/08/25 04:19:01;;;;;;;5.97;3.45;;;17.90;99.90;;;-144.05;59.65;125687.94;5011785;28;20486;-85
2022/08/25 04:21:28;;;;;;;5.85;3.67;;;17.80;99.90;;;-144.05;60.73;125687.94;5014542;28;20033;-88
2022/08/25 04:23:55;;;;;;;7.15;3.80;;;17.60;99.90;;;-144.05;61.70;125687.94;4999382;28;20027;-87
2022/08/25 04:26:50;;;;;;;7.68;3.90;;;17.40;99.90;;;-144.05;62.14;125687.94;5041919;23;20068;-86
2022/08/25 04:29:22;;;;;;;9.98;4.53;;;17.30;99.90;;;-144.05;61.78;125687.94;5016867;28;20071;-86
2022/08/25 04:31:49;;;;;;;9.85;4.10;;;17.30;99.90;;;-144.05;61.49;125687.94;5034867;28;20029;-86
2022/08/25 04:34:24;;;;;;;10.77;4.13;;;17.40;99.90;;;-144.05;60.42;125687.94;5051522;28;20120;-87
2022/08/25 04:36:50;;;;;;;8.13;4.10;;;17.50;99.90;;;-144.05;60.15;125687.94;5034172;28;20032;-85
2022/08/25 04:39:20;;;;;;;7.80;4.13;;;17.60;99.90;;;-144.05;59.82;125687.94;5038727;28;20498;-84
2022/08/25 04:41:50;;;;;;;9.18;4.30;;;17.60;99.90;;;-144.05;59.05;125687.94;5037838;28;20035;-86
2022/08/25 04:44:17;;;;;;;7.47;4.13;;;17.70;99.90;;;-144.05;58.98;125687.94;5038127;28;20143;-84
2022/08/25 04:46:43;;;;;;;7.78;4.20;;;17.80;99.90;;;-144.05;58.91;125687.94;5038757;28;20172;-84
2022/08/25 04:49:11;;;;;;;10.07;4.40;;;17.90;99.90;;;-144.05;59.14;125687.94;5037850;28;20036;-86
2022/08/25 04:51:41;;;;;;;10.85;4.50;;;17.90;99.90;;;-144.05;58.87;125687.94;5038607;28;20098;-86
2022/08/25 04:54:20;;;;;;;7.63;4.13;;;17.90;99.90;;;-144.05;58.51;125687.94;5038234;28;20067;-88
2022/08/25 04:56:48;;;;;;;8.18;4.00;;;17.90;99.90;;;-144.05;57.95;125687.94;5038226;28;20120;-84
2022/08/25 04:59:18;;;;;;;9.23;3.60;;;17.90;99.90;;;-144.05;57.30;125687.94;5038735;28;20060;-87
2022/08/25 05:01:45;;;;;;;6.20;4.07;;;18.10;99.90;;;-144.05;57.44;125687.94;5038163;28;20052;-87
2022/08/25 05:04:15;;;;;;;8.27;3.95;;;18.10;99.90;;;-144.05;56.95;125687.94;5038372;28;20029;-86
2022/08/25 05:06:42;;;;;;;6.88;3.38;;;18.20;99.90;;;-144.05;56.69;125687.94;5037371;28;20025;-86
2022/08/25 05:09:09;;;;;;;10.25;4.05;;;18.30;99.90;;;-144.05;56.83;125687.94;5054807;28;20029;-81
2022/08/25 05:11:36;;;;;;;9.15;3.88;;;18.30;99.90;;;-144.05;57.20;125687.94;5062994;28;20037;-87
2022/08/25 05:14:02;;;;;;;8.85;3.80;;;18.40;99.90;;;-144.05;57.25;125687.94;5037850;28;20055;-86
2022/08/25 05:16:29;;;;;;;6.45;3.85;;;18.40;99.90;;;-144.05;57.75;125687.94;5037757;28;20028;-85
2022/08/25 05:18:57;;;;;;;11.55;5.00;;;18.40;99.90;;;-144.05;57.01;125687.94;5038158;28;20032;-86
2022/08/25 05:21:27;;;;;;;7.85;3.97;;;18.40;99.90;;;-144.05;56.56;125687.94;5039094;28;20101;-85
2022/08/25 05:24:00;;;;;;;10.52;4.07;;;18.50;99.90;;;-144.05;56.06;125687.94;5038562;28;20036;-87
2022/08/25 05:26:33;;;;;;;9.55;4.22;;;18.60;99.90;;;-144.05;55.58;125687.94;5034616;28;20105;-86
2022/08/25 05:29:03;;;;;;;7.15;4.07;;;18.80;99.90;;;-144.05;55.32;125687.94;5036157;28;20615;-86
2022/08/25 05:31:31;;;;;;;8.32;4.22;;;18.90;99.90;;;-144.05;54.95;125687.94;5035220;28;20093;-87
2022/08/25 05:33:57;;;;;;;5.63;4.07;;;19.00;99.90;;;-144.05;55.19;125687.94;5037558;28;20112;-84
2022/08/25 05:36:29;;;;;;;7.72;4.20;;;19.10;99.90;;;-144.05;54.66;125687.94;5038743;28;20040;-87
2022/08/25 05:38:56;;;;;;;8.32;4.50;;;19.20;99.90;;;-144.05;54.84;125687.94;5040071;28;20051;-86
2022/08/25 05:41:29;;;;;;;12.05;4.40;;;19.20;99.90;;;-144.05;54.36;125687.94;5041030;28;20053;-86
2022/08/25 05:43:56;;;;;;;6.85;4.40;;;19.40;99.90;;;-144.05;53.74;125687.94;5041358;28;20487;-86
2022/08/25 05:46:23;;;;;;;5.38;3.80;;;19.50;99.90;;;-144.05;54.20;125687.94;5040924;28;20040;-87
2022/08/25 05:48:50;;;;;;;5.45;4.22;;;19.70;99.90;;;-144.05;54.07;125687.94;5041402;28;20443;-86
2022/08/25 05:51:18;;;;;;;4.97;3.90;;;19.80;99.90;;;-144.05;52.68;125687.94;5042181;28;20063;-87
2022/08/25 05:53:49;;;;;;;6.38;3.70;;;20.00;99.90;;;-144.05;50.68;125687.94;5041504;28;20036;-87
2022/08/25 05:56:17;;;;;;;10.43;4.47;;;20.30;99.90;;;-144.05;49.96;125687.94;5041606;28;20029;-88
2022/08/25 05:58:45;;;;;;;8.70;4.30;;;20.50;99.90;;;-144.05;49.23;125687.94;5042082;28;20150;-86
2022/08/25 06:04:16;;;;;;;7.57;4.30;;;21.00;99.90;;;-144.05;47.22;125687.94;5061998;28;20066;-88
2022/08/25 06:06:42;;;;;;;8.88;3.58;;;21.20;99.90;;;-144.05;46.93;125687.94;5060054;28;20035;-86
2022/08/25 06:09:09;;;;;;;6.95;4.25;;;21.50;99.90;;;-144.05;45.80;125687.94;5042128;28;20041;-86
2022/08/25 06:11:38;;;;;;;8.68;3.92;;;21.70;99.90;;;-144.05;45.16;125687.94;5042197;28;20028;-87
2022/08/25 06:14:06;;;;;;;8.65;4.85;;;22.00;99.90;;;-144.05;45.23;125687.94;5025017;28;20120;-84
2022/08/25 06:16:32;;;;;;;10.95;4.05;;;22.20;99.90;;;-144.05;44.11;125687.94;5041233;28;20047;-88
2022/08/25 06:18:58;;;;;;;12.57;3.88;;;22.60;99.90;;;-144.05;42.78;125687.94;5041367;28;20033;-87
2022/08/25 06:21:24;;;;;;;9.43;4.03;;;22.90;99.90;;;-144.05;41.98;125687.94;5041311;28;20026;-89
2022/08/25 06:23:50;;;;;;;7.20;3.88;;;23.10;99.90;;;-144.05;42.24;125687.94;5041977;28;20021;-86
2022/08/25 06:26:16;;;;;;;7.40;3.55;;;23.40;99.90;;;-144.05;42.29;125687.94;5041643;28;20032;-87
2022/08/25 06:28:42;;;;;;;5.30;4.32;;;23.60;99.90;;;-144.05;41.98;125687.94;5041571;28;20029;-88
2022/08/25 06:31:08;;;;;;;7.88;4.07;;;23.80;99.90;;;-144.05;41.59;125687.94;5041698;28;20056;-87
2022/08/25 06:33:34;;;;;;;5.43;4.35;;;24.00;99.90;;;-144.05;41.65;125687.94;5041289;28;20036;-87
2022/08/25 06:36:00;;;;;;;8.80;3.80;;;24.30;99.90;;;-144.05;41.60;125687.94;5041249;28;20029;-88
2022/08/25 06:38:27;;;;;;;7.95;4.10;;;24.40;99.90;;;-144.05;41.44;125687.94;5057819;28;20395;-88
2022/08/25 06:40:53;;;;;;;8.52;3.75;;;24.60;99.90;;;-144.05;41.22;125687.94;5040589;28;20029;-86
2022/08/25 06:43:20;;;;;;;6.93;4.13;;;24.70;99.90;;;-144.05;41.24;125687.94;5040993;28;20035;-87
2022/08/25 06:45:47;;;;;;;6.20;3.35;;;24.80;99.90;;;-144.05;41.12;125687.94;5040277;28;20025;-87
2022/08/25 06:48:14;;;;;;;8.82;3.95;;;25.00;99.90;;;-144.05;41.00;125687.94;5041366;28;20028;-89
2022/08/25 06:50:42;;;;;;;8.15;4.40;;;24.90;99.90;;;-144.05;40.64;125687.94;5041232;28;20079;-87
2022/08/25 06:53:08;;;;;;;9.75;4.25;;;25.00;99.90;;;-144.05;40.94;125687.94;5058099;28;20037;-87
2022/08/25 06:55:34;;;;;;;9.85;4.65;;;25.20;99.90;;;-144.05;40.38;125687.94;5039324;28;20059;-86
2022/08/25 06:58:02;;;;;;;12.00;3.90;;;25.30;99.90;;;-144.05;40.59;125687.94;5039794;28;20132;-88
2022/08/25 07:00:30;;;;;;;6.15;3.80;;;25.50;99.90;;;-144.05;40.18;125687.94;5039758;28;20033;-87
2022/08/25 07:02:56;;;;;;;7.25;3.92;;;25.70;99.90;;;-144.05;39.63;125687.94;5057845;28;20456;-88
2022/08/25 07:05:22;;;;;;;10.02;4.82;;;25.90;99.90;;;-144.05;39.25;125687.94;5039682;28;20477;-86
2022/08/25 07:07:49;;;;;;;5.65;3.83;;;26.10;99.90;;;-144.05;39.19;125687.94;5040597;28;20033;-85
2022/08/25 07:10:15;;;;;;;7.43;3.97;;;26.30;99.90;;;-144.05;38.79;125687.94;5055435;28;20017;-82
2022/08/25 07:12:41;;;;;;;7.07;4.03;;;26.40;99.90;;;-144.05;38.33;125687.94;5048572;28;20083;-87
2022/08/25 07:15:08;;;;;;;8.32;3.75;;;26.40;99.90;;;-144.05;37.93;125687.94;5040291;28;20028;-85
2022/08/25 07:17:34;;;;;;;11.73;4.13;;;26.50;99.90;;;-144.05;37.96;125687.94;5040293;28;20033;-88
2022/08/25 07:20:00;;;;;;;11.27;4.80;;;26.60;99.90;;;-144.05;38.03;125687.94;5040257;28;20103;-88
2022/08/25 07:22:26;;;;;;;12.05;4.30;;;26.70;99.90;;;-144.05;38.24;125687.94;5040544;28;20484;-87
2022/08/25 07:24:51;;;;;;;8.27;4.07;;;26.80;99.90;;;-144.05;37.80;125687.94;5057317;28;20064;-90
2022/08/25 07:27:17;;;;;;;9.73;4.35;;;27.00;99.90;;;-144.05;37.42;125687.94;5040268;28;20029;-87
2022/08/25 07:29:45;;;;;;;6.60;3.03;;;27.10;99.90;;;-144.05;37.45;125687.94;5056987;28;20040;-86
2022/08/25 07:32:11;;;;;;;7.10;4.50;;;27.40;99.90;;;-144.05;37.08;125687.94;5040385;28;20400;-87
2022/08/25 07:37:22;;;;;;;11.93;4.20;;;27.80;99.90;;;-144.05;36.00;125687.94;5058295;28;20036;-86
2022/08/25 07:39:48;;;;;;;5.88;3.80;;;28.10;99.90;;;-144.05;35.84;125687.94;5041211;28;20523;-87
2022/08/25 07:42:16;;;;;;;6.07;3.67;;;28.30;99.90;;;-144.05;35.87;125687.94;5040913;28;20064;-85
2022/08/25 07:44:43;;;;;;;8.02;4.15;;;28.40;99.90;;;-144.05;35.73;125687.94;5058625;28;20025;-87
2022/08/25 07:47:09;;;;;;;7.32;4.00;;;28.70;99.90;;;-144.05;35.73;125687.94;5041186;28;20021;-83
2022/08/25 07:49:36;;;;;;;6.28;3.70;;;28.90;99.90;;;-144.05;35.92;125687.94;5041153;28;20112;-83
2022/08/25 07:52:04;;;;;;;8.20;4.25;;;29.10;99.90;;;-144.05;34.71;125687.94;5041398;28;20032;-83
2022/08/25 07:54:31;;;;;;;6.30;4.07;;;29.40;99.90;;;-144.05;34.99;125687.94;5040685;28;20037;-87
2022/08/25 07:56:57;;;;;;;9.05;4.40;;;29.40;99.90;;;-144.05;35.19;125687.94;5038787;28;20064;-88
2022/08/25 07:59:23;;;;;;;4.22;3.42;;;29.50;99.90;;;-144.05;34.23;125687.94;5037922;28;20116;-86
2022/08/25 08:01:50;;;;;;;7.72;3.92;;;29.50;99.70;;;-144.05;34.61;125687.94;5037538;28;20481;-88
2022/08/25 08:04:16;;;;;;;6.13;4.60;;;29.60;99.60;;;-144.05;33.86;125687.94;5037692;28;20067;-89
2022/08/25 08:06:42;;;;;;;8.32;4.18;;;29.60;97.90;;;-144.05;34.35;125687.94;5036586;28;20037;-88
2022/08/25 08:09:11;;;;;;;5.03;3.90;;;29.60;98.80;;;-144.05;34.38;125687.94;5036814;28;20032;-87
2022/08/25 08:11:39;;;;;;;7.28;4.25;;;29.70;98.80;;;-144.05;34.56;125687.94;5036915;28;20056;-87
2022/08/25 08:14:07;;;;;;;7.47;4.70;;;29.70;98.70;;;-144.05;34.06;125687.94;5035885;28;20041;-88
2022/08/25 08:16:33;;;;;;;8.82;4.03;;;29.80;97.70;;;-144.05;34.00;125687.94;5036530;28;20060;-88
2022/08/25 08:19:01;;;;;;;6.28;4.15;;;30.10;97.60;;;-144.05;33.21;125687.94;5036526;28;20029;-88
2022/08/25 08:21:35;;;;;;;7.55;4.97;;;30.40;96.90;;;-144.05;32.75;125687.94;5037535;28;20157;-89
2022/08/25 08:24:02;;;;;;;7.95;4.97;;;30.40;95.50;;;-144.05;32.94;125687.94;5037213;28;20029;-87
2022/08/25 08:26:29;;;;;;;9.43;4.40;;;30.40;95.80;;;-144.05;33.41;125687.94;5037545;28;20052;-87
2022/08/25 08:28:56;;;;;;;4.75;4.05;;;30.40;95.70;;;-144.05;33.17;125687.94;5038547;28;20055;-87
2022/08/25 08:31:27;;;;;;;6.88;4.55;;;30.40;94.80;;;-144.05;32.71;125687.94;5037778;28;20092;-87
2022/08/25 08:33:57;;;;;;;7.55;4.15;;;30.50;94.60;;;-144.05;33.25;125687.94;5036633;28;20028;-87
2022/08/25 08:36:25;;;;;;;9.48;4.80;;;30.70;95.30;;;-144.05;32.96;125687.94;5053576;28;20448;-86
2022/08/25 08:38:51;;;;;;;6.03;4.38;;;30.90;95.00;;;-144.05;32.49;125687.94;5034941;28;20436;-87
2022/08/25 08:44:45;;;;;;;7.35;3.80;;;30.90;92.60;;;-144.05;31.67;125687.94;5053468;28;20155;-86
2022/08/25 08:48:00;;;;;;;5.03;4.00;;;31.10;92.00;;;-144.05;31.94;125687.94;5035168;28;20524;-87
2022/08/25 08:50:38;;;;;;;6.43;4.30;;;31.20;92.00;;;-144.05;32.00;125687.94;5036847;28;20033;-88
2022/08/25 08:53:28;;;;;;;5.57;4.05;;;31.40;92.20;;;-144.05;31.40;125687.94;5038121;28;20025;-88
2022/08/25 08:56:30;;;;;;;7.50;4.30;;;31.70;91.00;;;-144.05;31.83;125687.94;5037898;28;20414;-87
2022/08/25 08:59:16;;;;;;;5.90;4.00;;;31.90;90.60;;;-144.05;30.80;125687.94;5038103;28;20033;-88
2022/08/25 09:01:57;;;;;;;5.80;3.88;;;31.90;88.50;;;-144.05;30.94;125687.94;5039777;28;20086;-87
2022/08/25 09:04:51;;;;;;;4.85;3.97;;;31.90;87.80;;;-144.05;31.34;125687.94;5057647;28;20021;-87
2022/08/25 09:07:34;;;;;;;5.05;3.97;;;32.20;89.30;;;-144.05;30.53;125687.94;5038976;28;20025;-86
2022/08/25 09:10:00;;;;;;;6.95;4.47;;;32.20;87.30;;;-144.05;30.87;125687.94;5041557;28;20039;-88
2022/08/25 09:13:06;;;;;;;6.53;3.88;;;32.20;87.80;;;-144.05;30.90;125687.94;5057856;28;20040;-81
2022/08/25 09:19:36;;;;;;;8.52;4.60;;;32.30;85.30;;;-144.05;30.84;125687.94;5037239;28;20515;-88
2022/08/25 09:22:56;;;;;;;8.50;4.60;;;32.10;85.50;;;-144.05;31.11;125687.94;5019262;28;20119;-86
2022/08/25 09:25:29;;;;;;;7.32;4.43;;;31.90;86.40;;;-144.05;31.51;125687.94;5020881;28;20045;-83
2022/08/25 09:28:24;;;;;;;5.82;4.32;;;31.90;87.50;;;-144.05;31.06;125687.94;5021314;28;20033;-85
2022/08/25 09:31:16;;;;;;;4.87;4.00;;;32.10;85.50;;;-144.05;31.12;125687.94;5018804;28;20124;-86
2022/08/25 09:33:42;;;;;;;8.38;4.45;;;31.90;84.90;;;-144.05;31.13;125687.94;5018887;28;20775;-85
2022/08/25 09:36:08;;;;;;;6.03;4.30;;;32.00;85.10;;;-144.05;30.49;125687.94;5036608;28;20396;-86
2022/08/25 09:38:34;;;;;;;8.63;4.30;;;32.30;83.50;;;-144.05;30.04;125687.94;5019557;28;20088;-87
2022/08/25 09:41:01;;;;;;;6.78;4.30;;;32.60;82.10;;;-144.05;30.71;125687.94;5018650;28;20029;-88
2022/08/25 09:43:39;;;;;;;5.28;3.92;;;32.50;82.20;;;-144.05;29.98;125687.94;5035984;28;20022;-88
2022/08/25 09:46:14;;;;;;;6.55;3.92;;;32.80;81.10;;;-144.05;29.77;125687.94;5017905;28;20048;-87
2022/08/25 09:48:58;;;;;;;7.55;4.10;;;33.00;79.90;;;-144.05;30.14;125687.94;5020122;28;20442;-86
2022/08/25 09:51:34;;;;;;;4.88;4.18;;;32.90;79.50;;;-144.05;29.63;125687.94;5018268;28;20404;-87
2022/08/25 09:54:11;;;;;;;8.95;4.20;;;32.80;78.80;;;-144.05;29.90;125687.94;5017928;28;20128;-89
2022/08/25 09:57:00;;;;;;;6.25;4.30;;;32.60;78.20;;;-144.05;30.31;125687.94;5017789;28;20026;-87
2022/08/25 09:59:36;;;;;;;5.80;4.30;;;32.50;79.90;;;-144.05;30.67;125687.94;5017692;28;20030;-88
2022/08/25 10:02:27;;;;;;;7.38;4.28;;;32.50;80.40;;;-144.05;30.45;125687.94;5035882;28;20036;-86
2022/08/25 10:04:55;;;;;;;7.88;4.32;;;32.60;80.10;;;-144.05;30.40;125687.94;5034044;28;20243;-86
2022/08/25 10:07:52;;;;;;;6.93;4.40;;;32.60;80.30;;;-144.05;30.22;125687.94;5018135;28;20083;-87
2022/08/25 10:10:33;;;;;;;5.25;4.10;;;32.80;79.80;;;-144.05;29.66;125687.94;5017569;28;20037;-88
2022/08/25 10:13:02;;;;;;;6.95;4.35;;;32.80;77.00;;;-144.05;29.73;125687.94;5036142;28;20056;-87
2022/08/25 10:15:36;;;;;;;7.55;4.18;;;32.90;76.20;;;-144.05;29.61;125687.94;5037556;28;20056;-87
2022/08/25 10:18:28;;;;;;;9.00;4.50;;;32.80;76.40;;;-144.05;29.22;125687.94;5037263;28;20036;-86
2022/08/25 10:21:12;;;;;;;5.35;4.20;;;32.80;73.60;;;-144.05;29.83;125687.94;5036622;28;20123;-89
2022/08/25 10:23:55;;;;;;;4.10;3.65;;;32.60;74.40;;;-144.05;28.70;125687.94;5037218;28;20029;-89
2022/08/25 10:26:42;;;;;;;6.82;4.28;;;32.60;72.70;;;-144.05;29.53;125687.94;5052575;23;20038;-84
2022/08/25 10:29:41;;;;;;;7.05;5.03;;;32.70;75.20;;;-144.05;30.57;125687.94;5049271;28;20018;-86
2022/08/25 10:32:41;;;;;;;6.88;5.07;;;32.60;77.20;;;-144.05;30.60;125687.94;5023240;28;20034;-88
2022/08/25 10:35:50;;;;;;;6.47;4.65;;;32.50;77.40;;;-144.05;30.24;125687.94;5025244;28;20087;-86